EW3708 Weather Reports


Display with metric or nautical units.
time (UTC)temp
F
wind
direction
speed
MPH
gust
MPH
rain 1hr
in
rain 24hr
in
rain mn
in
humidity
%
barometer
mb
20210926004555 56 109 0.0 1.0 0.00 0.00 0.00 91 1013.7
20210926003055 56 109 0.0 0.0 0.00 0.00 0.00 90 1013.7
20210926001623 57 109 0.0 0.0 0.00 0.00 0.00 90 1013.8
20210926000059 58 109 0.0 0.0 0.00 0.00 0.00 89 1013.8
20210925234539 58 109 0.0 0.0 0.00 0.00 0.00 88 1013.7
20210925233046 59 109 0.0 0.0 0.00 0.00 0.00 87 1013.8
20210925231618 60 109 0.0 0.0 0.00 0.00 0.00 85 1013.8
20210925230047 61 109 0.0 0.0 0.00 0.00 0.00 83 1014.0
20210925224549 62 109 0.0 0.0 0.00 0.00 0.00 80 1013.9
20210925223040 63 109 0.0 0.0 0.00 0.00 0.00 77 1014.1
20210925221627 64 109 0.0 0.0 0.00 0.00 0.00 75 1014.0
20210925220042 65 109 0.0 0.0 0.00 0.00 0.00 71 1014.1
20210925214540 65 109 0.0 2.0 0.00 0.00 0.00 69 1014.1
20210925213056 66 107 0.0 2.0 0.00 0.00 0.00 71 1014.1
20210925211611 66 240 0.0 2.0 0.00 0.00 0.00 68 1014.1
20210925210057 66 179 0.0 2.0 0.00 0.00 0.00 68 1014.3
20210925204546 67 199 0.0 2.0 0.00 0.00 0.00 66 1014.5
20210925203035 67 199 1.0 2.0 0.00 0.00 0.00 67 1014.5
20210925201522 67 198 1.0 2.0 0.00 0.00 0.00 65 1014.7
20210925200100 67 238 1.0 3.0 0.00 0.00 0.00 64 1014.8
20210925194520 67 105 0.0 2.0 0.00 0.00 0.00 62 1014.9
20210925193125 68 235 1.0 3.0 0.00 0.00 0.00 61 1014.9
20210925191527 68 163 0.0 3.0 0.00 0.00 0.00 62 1015.0
20210925190022 67 245 0.0 3.0 0.00 0.00 0.00 64 1015.2
20210925184515 67 140 0.0 2.0 0.00 0.00 0.00 67 1015.3
20210925183043 68 157 1.0 3.0 0.00 0.00 0.00 60 1015.7
20210925181517 69 193 0.0 3.0 0.00 0.00 0.00 61 1015.7
20210925180011 70 151 1.0 5.0 0.00 0.00 0.00 58 1016.0
20210925174529 70 178 1.0 3.0 0.00 0.00 0.00 57 1016.1
20210925173015 70 150 1.0 3.0 0.00 0.00 0.00 57 1016.4
20210925171505 69 150 0.0 3.0 0.00 0.00 0.00 57 1016.7
20210925170007 71 183 1.0 5.0 0.00 0.00 0.00 54 1016.9
20210925164706 71 220 1.0 5.0 0.00 0.00 0.00 55 1017.1
20210925163109 69 153 0.0 3.0 0.00 0.00 0.00 57 1017.2
20210925161602 69 143 1.0 3.0 0.00 0.00 0.00 59 1017.5
20210925160126 68 129 1.0 3.0 0.00 0.00 0.00 59 1017.6
20210925154656 66 227 0.0 4.0 0.00 0.00 0.00 66 1017.6
20210925153108 62 188 0.0 0.0 0.00 0.00 0.00 78 1017.8
20210925151558 60 188 0.0 2.0 0.00 0.00 0.00 79 1017.9
20210925150104 58 142 0.0 1.0 0.00 0.00 0.00 90 1018.2
20210925144557 56 142 0.0 2.0 0.00 0.00 0.00 96 1018.3
20210925143045 56 142 0.0 1.0 0.00 0.00 0.00 98 1018.5
20210925141550 55 142 0.0 1.0 0.00 0.00 0.00 99 1018.5
20210925140024 53 139 0.0 1.0 0.00 0.00 0.00 99 1018.5
20210925134525 51 139 0.0 1.0 0.00 0.00 0.00 98 1018.5
20210925133103 49 139 0.0 0.0 0.00 0.00 0.00 98 1018.6
20210925131538 48 139 0.0 0.0 0.00 0.00 0.00 98 1018.7
20210925130014 46 139 0.0 0.0 0.00 0.00 0.00 98 1018.8
20210925124507 45 139 0.0 0.0 0.00 0.00 0.00 98 1018.9
20210925123009 44 139 0.0 0.0 0.00 0.00 0.00 98 1018.8
20210925121505 44 139 0.0 0.0 0.00 0.00 0.00 97 1019.0
20210925120006 43 139 0.0 0.0 0.00 0.00 0.00 97 1019.1
20210925114513 43 139 0.0 0.0 0.00 0.00 0.00 97 1019.1
20210925113005 43 139 0.0 0.0 0.00 0.00 0.00 97 1019.2
20210925111506 43 139 0.0 0.0 0.00 0.00 0.00 97 1019.1
20210925110001 43 139 0.0 1.0 0.00 0.00 0.00 97 1019.1
20210925104658 43 139 0.0 0.0 0.00 0.00 0.00 97 1019.2
20210925104502 43 139 0.0 0.0 0.00 0.00 0.00 97 1019.2
20210925103232 43 139 0.0 0.0 0.00 0.00 0.00 97 1019.1
20210925101656 43 139 0.0 0.0 0.00 0.00 0.00 96 1019.2
20210925100128 43 139 0.0 0.0 0.00 0.00 0.00 96 1019.2
20210925094605 44 139 0.0 0.0 0.00 0.00 0.00 96 1019.0
20210925093207 44 139 0.0 0.0 0.00 0.00 0.00 96 1019.2
20210925091644 44 139 0.0 0.0 0.00 0.00 0.00 97 1019.0
20210925090109 44 139 0.0 0.0 0.00 0.00 0.00 96 1019.0
20210925084623 44 139 0.0 0.0 0.00 0.00 0.00 97 1019.0
20210925083139 44 139 0.0 0.0 0.00 0.00 0.00 96 1018.9
20210925081618 44 139 0.0 0.0 0.00 0.00 0.00 96 1018.9
20210925080203 45 139 0.0 0.0 0.00 0.00 0.00 96 1019.1
20210925074639 45 139 0.0 1.0 0.00 0.00 0.00 96 1019.0
20210925073158 45 139 0.0 1.0 0.00 0.00 0.00 96 1019.1
20210925071555 45 139 0.0 0.0 0.00 0.00 0.00 96 1019.0
20210925070101 45 139 0.0 0.0 0.00 0.00 0.00 96 1019.1
20210925064603 45 139 0.0 0.0 0.00 0.00 0.00 96 1019.1
20210925063115 45 139 0.0 0.0 0.00 0.00 0.00 96 1019.2
20210925061641 45 139 0.0 0.0 0.00 0.00 0.00 96 1019.2
20210925060059 45 139 0.0 0.0 0.00 0.00 0.00 96 1019.2
20210925054559 45 139 0.0 0.0 0.00 0.00 0.00 95 1019.1
20210925053045 46 139 0.0 0.0 0.00 0.00 0.00 96 1019.1
20210925051551 46 139 0.0 0.0 0.00 0.00 0.00 95 1019.1
20210925050105 46 139 0.0 0.0 0.00 0.00 0.00 96 1019.1
20210925044559 46 139 0.0 0.0 0.00 0.00 0.00 95 1019.1
20210925043054 47 139 0.0 0.0 0.00 0.00 0.00 95 1019.1
20210925041618 47 139 0.0 0.0 0.00 0.00 0.00 95 1019.2
20210925040040 47 139 0.0 0.0 0.00 0.00 0.00 95 1019.1
20210925034601 47 139 0.0 0.0 0.00 0.00 0.00 95 1019.2
20210925033112 48 139 0.0 0.0 0.00 0.00 0.00 95 1019.1
20210925031544 48 139 0.0 0.0 0.00 0.00 0.00 95 1019.0
20210925030049 49 139 0.0 0.0 0.00 0.00 0.00 95 1019.0
20210925024532 49 139 0.0 0.0 0.00 0.00 0.00 94 1019.0
20210925023113 49 139 0.0 0.0 0.00 0.00 0.00 94 1019.0
20210925021539 49 139 0.0 0.0 0.00 0.00 0.00 94 1018.9
20210925020025 49 139 0.0 0.0 0.00 0.00 0.00 94 1019.0
20210925014551 50 139 0.0 0.0 0.00 0.00 0.00 94 1018.9
20210925013037 50 139 0.0 0.0 0.00 0.00 0.00 93 1019.0
20210925011530 51 139 0.0 0.0 0.00 0.00 0.00 93 1019.1